Time;durP1;ratioP1;P1;durP2;ratioP2;P2;SDS_P1;SDS_P2;PMS_P1;PMS_P2;Temp;Humidity;BMP_temperature;BMP_pressure;BME280_temperature;BME280_humidity;BME280_pressure;Samples;Min_cycle;Max_cycle;Signal;HPM_P1;HPM_P2
2023/04/19 00:02:15;;;;;;;11.60;7.47;;;11.10;99.90;;;;;;5058933;28;20443;-70
2023/04/19 00:05:00;;;;;;;8.47;7.27;;;11.10;99.90;;;;;;5065027;28;20453;-70
2023/04/19 00:07:47;;;;;;;9.87;7.30;;;11.10;99.90;;;;;;5061242;28;20829;-70
2023/04/19 00:10:34;;;;;;;9.00;7.23;;;11.10;99.90;;;;;;5061846;28;21805;-70
2023/04/19 00:13:21;;;;;;;11.10;7.67;;;11.20;99.90;;;;;;5060649;28;21018;-71
2023/04/19 00:16:08;;;;;;;9.80;6.70;;;11.20;99.90;;;;;;5062508;28;20941;-70
2023/04/19 00:18:53;;;;;;;9.00;7.07;;;11.10;99.90;;;;;;5057932;28;20476;-70
2023/04/19 00:21:39;;;;;;;7.70;6.10;;;11.10;99.90;;;;;;5058574;28;20453;-70
2023/04/19 00:24:25;;;;;;;9.30;7.20;;;11.10;99.90;;;;;;5054825;28;20491;-70
2023/04/19 00:27:10;;;;;;;7.87;6.20;;;11.20;99.90;;;;;;5060718;28;20423;-70
2023/04/19 00:29:57;;;;;;;8.70;7.30;;;11.30;99.90;;;;;;5065249;28;20513;-71
2023/04/19 00:32:43;;;;;;;8.83;6.80;;;11.20;99.90;;;;;;5067722;28;20497;-71
2023/04/19 00:35:29;;;;;;;7.57;6.77;;;11.30;99.90;;;;;;5070255;28;20891;-70
2023/04/19 00:38:14;;;;;;;8.63;7.03;;;11.20;99.90;;;;;;5068394;28;20474;-70
2023/04/19 00:41:00;;;;;;;9.97;7.30;;;11.20;99.90;;;;;;5071168;28;20576;-70
2023/04/19 00:43:45;;;;;;;13.63;7.07;;;11.20;99.90;;;;;;5064592;28;20940;-70
2023/04/19 00:46:33;;;;;;;7.80;6.40;;;11.20;99.90;;;;;;5069841;28;20949;-72
2023/04/19 00:49:20;;;;;;;9.10;6.67;;;11.20;99.90;;;;;;5067736;28;20430;-70
2023/04/19 00:52:06;;;;;;;9.83;6.80;;;11.20;99.90;;;;;;5069699;28;20426;-70
2023/04/19 00:54:52;;;;;;;8.07;7.03;;;11.20;99.90;;;;;;5069771;28;20993;-71
2023/04/19 00:57:38;;;;;;;9.00;6.80;;;11.20;99.90;;;;;;5065077;28;20479;-70
2023/04/19 01:00:24;;;;;;;10.27;7.23;;;11.20;99.90;;;;;;5065523;28;20947;-71
2023/04/19 01:03:12;;;;;;;8.00;6.47;;;11.20;99.90;;;;;;5060900;28;20509;-69
2023/04/19 01:05:57;;;;;;;15.67;8.03;;;11.20;99.90;;;;;;5063620;28;20447;-69
2023/04/19 01:08:43;;;;;;;10.33;7.07;;;11.30;99.90;;;;;;5062328;28;20572;-70
2023/04/19 01:11:29;;;;;;;12.50;8.20;;;11.20;99.90;;;;;;5062504;28;20451;-70
2023/04/19 01:14:14;;;;;;;12.80;8.37;;;11.20;99.90;;;;;;5061183;28;20472;-70
2023/04/19 01:17:00;;;;;;;8.07;6.43;;;11.10;99.90;;;;;;5055549;28;20456;-71
2023/04/19 01:19:47;;;;;;;13.60;6.83;;;11.20;99.90;;;;;;5064650;28;20448;-69
2023/04/19 01:22:36;;;;;;;9.17;6.90;;;11.20;99.90;;;;;;5060149;28;20453;-70
2023/04/19 01:25:21;;;;;;;9.77;6.33;;;11.20;99.90;;;;;;5059672;28;20453;-70
2023/04/19 01:28:07;;;;;;;7.57;6.30;;;11.20;99.90;;;;;;5059319;28;21196;-70
2023/04/19 01:30:53;;;;;;;8.23;6.50;;;11.20;99.90;;;;;;5064265;28;20530;-70
2023/04/19 01:33:39;;;;;;;10.80;7.20;;;11.10;99.90;;;;;;5067858;28;20443;-71
2023/04/19 01:36:26;;;;;;;11.83;7.10;;;11.20;99.90;;;;;;5063819;28;20578;-71
2023/04/19 01:39:13;;;;;;;8.50;6.80;;;11.20;99.90;;;;;;5068205;28;20473;-70
2023/04/19 01:42:00;;;;;;;9.97;6.97;;;11.10;99.90;;;;;;5069939;28;20481;-71
2023/04/19 01:44:45;;;;;;;9.90;6.83;;;11.10;99.90;;;;;;5070893;28;20935;-70
2023/04/19 01:47:30;;;;;;;11.03;7.57;;;11.10;99.90;;;;;;5067247;28;20494;-69
2023/04/19 01:50:16;;;;;;;10.10;7.00;;;11.10;99.90;;;;;;5074035;28;20404;-70
2023/04/19 01:53:02;;;;;;;10.63;6.10;;;11.10;99.90;;;;;;5069391;28;20427;-70
2023/04/19 01:55:49;;;;;;;8.90;6.60;;;11.10;99.90;;;;;;5063277;28;20465;-71
2023/04/19 01:58:35;;;;;;;7.57;5.70;;;11.10;99.90;;;;;;5068433;28;20568;-70
2023/04/19 02:01:21;;;;;;;7.43;6.63;;;11.10;99.90;;;;;;5065210;28;20547;-70
2023/04/19 02:04:07;;;;;;;7.20;6.30;;;11.10;99.90;;;;;;5061152;28;20459;-70
2023/04/19 02:06:53;;;;;;;9.83;6.60;;;11.10;99.90;;;;;;5061252;28;20776;-70
2023/04/19 02:09:39;;;;;;;8.50;6.87;;;11.10;99.90;;;;;;5069350;28;20453;-70
2023/04/19 02:12:27;;;;;;;8.17;6.50;;;11.00;99.90;;;;;;5062896;28;20961;-71
2023/04/19 02:15:13;;;;;;;8.97;6.40;;;11.00;99.90;;;;;;5059193;28;20469;-71
2023/04/19 02:17:59;;;;;;;7.20;5.70;;;11.00;99.90;;;;;;5063603;28;20472;-70
2023/04/19 02:20:45;;;;;;;9.20;7.23;;;11.00;99.90;;;;;;5066901;28;20444;-70
2023/04/19 02:23:31;;;;;;;11.33;6.80;;;11.00;99.90;;;;;;5079998;22;20488;-92
2023/04/19 02:26:20;;;;;;;7.17;5.57;;;11.00;99.90;;;;;;5069592;28;20530;-92
2023/04/19 02:29:07;;;;;;;7.27;6.20;;;11.00;99.90;;;;;;5049170;28;20485;-91
2023/04/19 02:31:53;;;;;;;8.20;6.10;;;11.10;99.90;;;;;;5046017;28;20586;-91
2023/04/19 02:34:42;;;;;;;8.27;6.00;;;11.10;99.90;;;;;;5053227;28;20441;-92
2023/04/19 02:37:28;;;;;;;8.90;5.70;;;11.10;99.90;;;;;;5053489;28;20493;-92
2023/04/19 02:40:14;;;;;;;7.30;5.73;;;11.10;99.90;;;;;;5054634;28;20408;-91
2023/04/19 02:43:01;;;;;;;7.37;6.60;;;11.10;99.90;;;;;;5050509;28;20428;-92
2023/04/19 02:45:48;;;;;;;6.97;5.83;;;11.10;99.90;;;;;;5050099;28;20487;-92
2023/04/19 02:48:34;;;;;;;8.40;5.97;;;11.10;99.90;;;;;;5052999;28;20785;-92
2023/04/19 02:51:20;;;;;;;6.73;6.00;;;11.10;99.90;;;;;;5054628;28;20913;-91
2023/04/19 02:54:07;;;;;;;5.27;4.77;;;11.10;99.90;;;;;;5055697;28;20392;-92
2023/04/19 02:56:52;;;;;;;6.10;5.10;;;11.10;99.90;;;;;;5051441;28;20427;-92
2023/04/19 02:59:38;;;;;;;8.10;5.93;;;11.10;99.90;;;;;;5053750;28;20475;-92
2023/04/19 03:02:26;;;;;;;10.60;6.97;;;11.00;99.90;;;;;;5054872;28;20400;-92
2023/04/19 03:05:12;;;;;;;8.07;6.07;;;11.00;99.90;;;;;;5043188;28;20412;-91
2023/04/19 03:07:58;;;;;;;7.13;5.70;;;10.90;99.90;;;;;;5048539;28;20802;-92
2023/04/19 03:10:44;;;;;;;10.53;5.63;;;10.90;99.90;;;;;;5041390;28;20444;-92
2023/04/19 03:13:29;;;;;;;10.07;5.93;;;10.90;99.90;;;;;;5048970;28;20408;-92
2023/04/19 03:16:15;;;;;;;7.10;5.93;;;10.90;99.90;;;;;;5044956;28;20568;-92
2023/04/19 03:19:02;;;;;;;9.10;7.37;;;10.90;99.90;;;;;;5048843;28;20540;-91
2023/04/19 03:21:48;;;;;;;9.17;6.60;;;10.90;99.90;;;;;;5043204;28;20407;-92
2023/04/19 03:24:34;;;;;;;7.83;6.70;;;10.90;99.90;;;;;;5041155;28;20664;-92
2023/04/19 03:27:19;;;;;;;8.77;6.27;;;10.90;99.90;;;;;;5042878;28;20457;-92
2023/04/19 03:30:06;;;;;;;10.47;7.60;;;10.90;99.90;;;;;;5042918;28;20425;-92
2023/04/19 03:32:52;;;;;;;14.53;7.17;;;10.90;99.90;;;;;;5045488;28;20442;-92
2023/04/19 03:35:39;;;;;;;10.93;7.57;;;10.90;99.90;;;;;;5049014;28;20685;-92
2023/04/19 03:38:24;;;;;;;9.33;7.40;;;10.80;99.90;;;;;;5045398;28;20525;-92
2023/04/19 03:41:18;;;;;;;9.77;7.00;;;10.80;99.90;;;;;;5041919;28;20438;-91
2023/04/19 03:44:11;;;;;;;10.50;7.73;;;10.90;99.90;;;;;;5042244;28;20445;-91
2023/04/19 03:46:57;;;;;;;10.03;7.50;;;10.90;99.90;;;;;;5045626;28;20546;-91
2023/04/19 03:49:42;;;;;;;10.10;7.43;;;10.90;99.90;;;;;;5045159;28;20441;-91
2023/04/19 03:52:30;;;;;;;8.90;7.53;;;10.90;99.90;;;;;;5044722;28;20791;-92
2023/04/19 03:55:16;;;;;;;9.10;7.30;;;10.90;99.90;;;;;;5046114;28;20551;-92
2023/04/19 03:58:01;;;;;;;8.43;6.90;;;10.90;99.90;;;;;;5040765;28;20444;-91
2023/04/19 04:00:47;;;;;;;10.53;7.20;;;10.80;99.90;;;;;;5043763;28;20640;-91
2023/04/19 04:03:32;;;;;;;9.60;6.90;;;10.70;99.90;;;;;;5045471;28;20461;-92
2023/04/19 04:06:18;;;;;;;9.07;7.60;;;10.70;99.90;;;;;;5048603;28;21012;-91
2023/04/19 04:09:05;;;;;;;9.97;6.77;;;10.70;99.90;;;;;;5040003;28;20495;-90
2023/04/19 04:11:52;;;;;;;26.17;10.07;;;10.70;99.90;;;;;;5041526;28;20809;-92
2023/04/19 04:14:41;;;;;;;12.87;7.80;;;10.70;99.90;;;;;;5043562;28;20606;-92
2023/04/19 04:17:27;;;;;;;9.53;7.50;;;10.80;99.90;;;;;;5037840;28;20825;-91
2023/04/19 04:20:14;;;;;;;9.83;8.43;;;10.80;99.90;;;;;;5043796;28;20846;-92
2023/04/19 04:23:00;;;;;;;9.63;7.27;;;10.70;99.90;;;;;;5046838;28;20437;-90
2023/04/19 04:25:47;;;;;;;10.37;7.60;;;10.70;99.90;;;;;;5044044;28;20434;-91
2023/04/19 04:28:44;;;;;;;15.10;6.93;;;10.60;99.90;;;;;;5047643;28;20444;-91
2023/04/19 04:31:30;;;;;;;10.67;7.53;;;10.60;99.90;;;;;;5042822;28;21160;-92
2023/04/19 04:34:16;;;;;;;11.13;6.80;;;10.60;99.90;;;;;;5044943;28;20413;-92
2023/04/19 04:37:02;;;;;;;13.00;9.03;;;10.70;99.90;;;;;;5052104;28;20442;-92
2023/04/19 04:39:48;;;;;;;9.17;7.77;;;10.70;99.90;;;;;;5052598;28;20968;-92
2023/04/19 04:42:36;;;;;;;12.20;8.30;;;10.70;99.90;;;;;;5051813;28;20433;-92
2023/04/19 04:45:22;;;;;;;9.27;7.50;;;10.70;99.90;;;;;;5049949;28;20448;-92
2023/04/19 04:48:08;;;;;;;15.60;7.90;;;10.80;99.90;;;;;;5048778;28;20450;-91
2023/04/19 04:50:53;;;;;;;14.23;7.83;;;10.80;99.90;;;;;;5046366;28;20429;-91
2023/04/19 04:53:39;;;;;;;11.07;8.00;;;10.90;99.90;;;;;;5040228;28;20434;-91
2023/04/19 04:56:26;;;;;;;8.97;7.43;;;10.90;99.90;;;;;;5052133;28;20447;-91
2023/04/19 04:59:13;;;;;;;11.50;7.97;;;10.90;99.90;;;;;;5051613;28;21055;-92
2023/04/19 05:01:58;;;;;;;12.90;8.53;;;10.90;99.90;;;;;;5051533;28;20436;-92
2023/04/19 05:04:44;;;;;;;9.90;7.90;;;10.90;99.90;;;;;;5050461;28;20531;-90
2023/04/19 05:07:30;;;;;;;9.80;7.20;;;10.90;99.90;;;;;;5048454;28;20469;-91
2023/04/19 05:10:16;;;;;;;8.97;7.37;;;10.90;99.90;;;;;;5041332;28;20815;-91
2023/04/19 05:13:02;;;;;;;10.77;7.87;;;11.00;99.90;;;;;;5046289;28;20424;-92
2023/04/19 05:15:49;;;;;;;10.23;8.00;;;11.00;99.90;;;;;;5046140;28;20470;-92
2023/04/19 05:18:35;;;;;;;14.90;7.47;;;11.00;99.90;;;;;;5038402;28;20496;-92
2023/04/19 05:21:20;;;;;;;10.33;8.30;;;11.10;99.90;;;;;;5044124;28;20479;-92
2023/04/19 05:24:08;;;;;;;11.10;8.10;;;11.10;99.90;;;;;;5037561;28;20464;-92
2023/04/19 05:26:55;;;;;;;11.17;7.80;;;11.10;99.90;;;;;;5042949;28;20450;-92
2023/04/19 05:29:40;;;;;;;10.33;8.60;;;11.10;99.90;;;;;;5039168;28;20411;-91
2023/04/19 05:32:28;;;;;;;13.10;7.90;;;11.20;99.90;;;;;;5040793;28;20433;-92
2023/04/19 05:35:30;;;;;;;11.50;8.37;;;11.20;99.90;;;;;;5041042;28;21141;-92
2023/04/19 05:38:17;;;;;;;11.53;9.40;;;11.10;99.90;;;;;;5042036;28;20562;-92
2023/04/19 05:41:03;;;;;;;9.80;7.60;;;11.10;99.90;;;;;;5041079;28;20446;-92
2023/04/19 05:43:49;;;;;;;11.43;8.40;;;11.10;99.90;;;;;;5038920;28;21020;-91
2023/04/19 05:46:36;;;;;;;10.67;7.40;;;11.10;99.90;;;;;;5042931;28;20813;-92
2023/04/19 05:49:23;;;;;;;9.10;7.57;;;11.20;99.90;;;;;;5039300;28;20411;-92
2023/04/19 05:52:08;;;;;;;11.47;8.40;;;11.10;99.90;;;;;;5044343;28;20517;-92
2023/04/19 05:54:55;;;;;;;12.50;7.90;;;11.10;99.90;;;;;;5041580;28;20535;-91
2023/04/19 05:57:41;;;;;;;10.13;8.20;;;11.10;99.90;;;;;;5041346;28;20459;-92
2023/04/19 06:00:27;;;;;;;11.57;8.20;;;11.10;99.90;;;;;;5038807;28;20481;-92
2023/04/19 06:03:14;;;;;;;9.73;8.17;;;11.10;99.90;;;;;;5041597;28;20957;-92
2023/04/19 06:06:01;;;;;;;13.43;8.53;;;11.20;99.90;;;;;;5043582;28;20461;-92
2023/04/19 06:08:46;;;;;;;11.00;8.07;;;11.30;99.90;;;;;;5039422;28;21012;-91
2023/04/19 06:11:32;;;;;;;10.00;7.67;;;11.40;99.90;;;;;;5041679;28;20458;-92
2023/04/19 06:14:18;;;;;;;11.80;8.23;;;11.50;99.90;;;;;;5041461;28;20577;-92
2023/04/19 06:19:39;;;;;;;11.33;7.90;;;11.70;99.90;;;;;;5055974;28;20447;-72
2023/04/19 06:22:26;;;;;;;11.40;8.57;;;11.70;99.90;;;;;;5052696;28;20419;-72
2023/04/19 06:25:11;;;;;;;10.70;8.10;;;11.80;99.90;;;;;;5059458;28;20431;-72
2023/04/19 06:27:57;;;;;;;14.00;8.40;;;11.90;99.90;;;;;;5054085;28;20425;-72
2023/04/19 06:30:42;;;;;;;11.13;8.10;;;12.00;99.90;;;;;;5056625;28;20487;-72
2023/04/19 06:33:28;;;;;;;10.80;8.00;;;12.00;99.90;;;;;;5059596;28;20668;-72
2023/04/19 06:36:14;;;;;;;11.67;7.83;;;12.00;99.90;;;;;;5058327;28;20563;-72
2023/04/19 06:39:01;;;;;;;11.13;8.13;;;12.00;99.90;;;;;;5065407;28;20592;-72
2023/04/19 06:41:46;;;;;;;14.50;8.80;;;12.00;99.90;;;;;;5066196;28;20521;-72
2023/04/19 06:44:32;;;;;;;14.90;10.83;;;12.00;99.90;;;;;;5064036;28;21173;-72
2023/04/19 06:47:18;;;;;;;10.23;8.40;;;11.90;99.90;;;;;;5067418;28;20445;-72
2023/04/19 06:50:04;;;;;;;12.60;8.87;;;11.90;99.90;;;;;;5069729;28;20467;-71
2023/04/19 06:52:49;;;;;;;11.20;8.33;;;12.00;99.90;;;;;;5065281;28;20787;-72
2023/04/19 06:55:37;;;;;;;12.70;9.23;;;12.00;99.90;;;;;;5067751;28;20391;-72
2023/04/19 06:58:22;;;;;;;14.00;9.07;;;12.00;99.90;;;;;;5067994;28;20475;-72
2023/04/19 07:01:08;;;;;;;11.40;8.70;;;12.00;99.90;;;;;;5061044;28;20448;-71
2023/04/19 07:03:54;;;;;;;12.03;9.00;;;12.00;99.90;;;;;;5066749;28;20584;-72
2023/04/19 07:06:40;;;;;;;11.67;8.73;;;12.00;99.90;;;;;;5066553;28;20937;-71
2023/04/19 07:09:26;;;;;;;11.17;8.13;;;11.90;99.90;;;;;;5062819;28;20500;-71
2023/04/19 07:12:13;;;;;;;11.20;8.63;;;11.90;99.90;;;;;;5063627;28;20908;-72
2023/04/19 07:14:59;;;;;;;10.27;8.43;;;11.90;99.90;;;;;;5059297;28;20456;-71
2023/04/19 07:17:44;;;;;;;10.63;9.47;;;11.90;99.90;;;;;;5057434;28;20461;-72
2023/04/19 07:20:30;;;;;;;14.90;9.17;;;11.90;99.90;;;;;;5062957;28;21114;-72
2023/04/19 07:23:17;;;;;;;11.40;8.30;;;11.90;99.90;;;;;;5057266;28;20419;-71
2023/04/19 07:26:02;;;;;;;13.13;9.30;;;12.00;99.90;;;;;;5059597;28;20456;-71
2023/04/19 07:28:49;;;;;;;10.50;8.80;;;12.00;99.90;;;;;;5059832;28;20420;-71
2023/04/19 07:31:35;;;;;;;14.03;9.07;;;12.00;99.90;;;;;;5059393;28;20446;-71
2023/04/19 07:34:21;;;;;;;11.50;8.97;;;12.00;99.90;;;;;;5058182;28;20830;-71
2023/04/19 07:37:06;;;;;;;12.57;9.47;;;12.10;99.90;;;;;;5064233;28;20579;-71
2023/04/19 07:39:52;;;;;;;15.23;9.63;;;12.10;99.90;;;;;;5051676;28;20448;-71
2023/04/19 07:42:38;;;;;;;10.87;9.00;;;12.20;99.90;;;;;;5063077;28;20891;-72
2023/04/19 07:45:24;;;;;;;13.33;9.60;;;12.20;99.90;;;;;;5059118;28;20485;-71
2023/04/19 07:48:10;;;;;;;10.60;9.20;;;12.20;99.90;;;;;;5058121;28;20444;-72
2023/04/19 07:50:56;;;;;;;13.83;9.93;;;12.20;99.90;;;;;;5055103;28;20779;-71
2023/04/19 07:53:42;;;;;;;15.10;9.90;;;12.20;99.90;;;;;;5059151;28;20519;-72
2023/04/19 07:56:27;;;;;;;16.43;9.73;;;12.20;99.90;;;;;;5057685;28;20445;-72
2023/04/19 07:59:13;;;;;;;15.03;10.17;;;12.20;99.90;;;;;;5058581;28;20470;-72
2023/04/19 08:02:00;;;;;;;13.43;10.17;;;12.30;99.90;;;;;;5057295;28;20551;-72
2023/04/19 08:04:48;;;;;;;14.00;8.83;;;12.40;99.90;;;;;;5061214;28;20439;-71
2023/04/19 08:07:33;;;;;;;13.20;10.60;;;12.40;99.90;;;;;;5060373;28;20814;-72
2023/04/19 08:10:20;;;;;;;11.97;9.27;;;12.40;99.90;;;;;;5053649;28;20514;-72
2023/04/19 08:13:05;;;;;;;11.63;9.20;;;12.50;99.90;;;;;;5059938;28;20446;-71
2023/04/19 08:15:51;;;;;;;12.20;9.60;;;12.50;99.90;;;;;;5061147;28;20812;-73
2023/04/19 08:18:38;;;;;;;10.97;9.20;;;12.50;99.90;;;;;;5055929;28;20907;-71
2023/04/19 08:21:23;;;;;;;13.20;10.50;;;12.60;99.90;;;;;;5070264;28;20391;-71
2023/04/19 08:24:09;;;;;;;11.47;9.80;;;12.60;99.90;;;;;;5061480;28;20611;-71
2023/04/19 08:26:55;;;;;;;11.80;8.80;;;12.60;99.90;;;;;;5080585;22;20423;-75
2023/04/19 08:29:40;;;;;;;12.93;9.03;;;12.60;99.90;;;;;;5068422;28;20456;-74
2023/04/19 08:32:26;;;;;;;10.80;9.10;;;12.60;99.90;;;;;;5068403;28;20879;-75
2023/04/19 08:35:13;;;;;;;12.50;9.07;;;12.60;99.90;;;;;;5070001;28;20432;-74
2023/04/19 08:37:59;;;;;;;10.20;8.90;;;12.60;99.90;;;;;;5064557;28;20585;-75
2023/04/19 08:40:46;;;;;;;16.40;8.47;;;12.70;99.90;;;;;;5067424;28;20956;-75
2023/04/19 08:43:37;;;;;;;12.33;9.53;;;12.70;99.90;;;;;;5070034;28;20408;-76
2023/04/19 08:46:23;;;;;;;11.07;9.10;;;12.60;99.90;;;;;;5067434;28;20791;-75
2023/04/19 08:49:10;;;;;;;11.83;9.87;;;12.70;99.90;;;;;;5059461;28;20467;-73
2023/04/19 08:51:58;;;;;;;14.10;9.97;;;12.70;99.90;;;;;;5065856;28;20414;-74
2023/04/19 08:54:44;;;;;;;12.07;9.77;;;12.60;99.90;;;;;;5067860;28;20585;-75
2023/04/19 08:57:31;;;;;;;13.00;10.00;;;12.60;99.90;;;;;;5067830;28;20450;-75
2023/04/19 09:00:18;;;;;;;14.10;10.30;;;12.60;99.90;;;;;;5061708;28;20513;-74
2023/04/19 09:03:05;;;;;;;12.53;9.13;;;12.70;99.90;;;;;;5067052;28;21614;-74
2023/04/19 09:05:50;;;;;;;15.30;9.13;;;12.80;99.90;;;;;;5068957;28;20425;-74
2023/04/19 09:08:39;;;;;;;11.20;8.20;;;12.80;99.90;;;;;;5067360;28;20549;-74
2023/04/19 09:11:37;;;;;;;13.70;9.23;;;12.90;99.90;;;;;;5068379;28;20933;-75
2023/04/19 09:14:23;;;;;;;14.90;8.63;;;13.00;99.90;;;;;;5057448;28;20427;-74
2023/04/19 09:17:13;;;;;;;13.47;10.03;;;13.00;99.90;;;;;;5058586;28;20505;-75
2023/04/19 09:19:59;;;;;;;10.80;9.27;;;13.10;99.90;;;;;;5063745;28;20447;-75
2023/04/19 09:23:03;;;;;;;12.13;9.30;;;13.20;99.90;;;;;;5056422;28;20414;-75
2023/04/19 09:25:56;;;;;;;12.40;9.33;;;13.10;99.90;;;;;;5061038;28;20546;-75
2023/04/19 09:28:55;;;;;;;13.83;9.80;;;13.00;99.90;;;;;;5058372;28;20458;-75
2023/04/19 09:31:55;;;;;;;11.33;9.47;;;12.90;99.90;;;;;;5061842;28;20455;-75
2023/04/19 09:34:52;;;;;;;12.33;10.17;;;12.90;99.90;;;;;;5055682;28;20456;-74
2023/04/19 09:37:40;;;;;;;12.77;9.33;;;12.80;99.90;;;;;;5063882;28;20472;-72
2023/04/19 09:40:26;;;;;;;12.37;10.20;;;12.80;99.90;;;;;;5066262;28;20443;-75
2023/04/19 09:43:23;;;;;;;15.67;10.73;;;12.80;99.90;;;;;;5062890;28;20446;-75
2023/04/19 09:46:08;;;;;;;12.73;9.97;;;12.80;99.90;;;;;;5065234;28;20423;-73
2023/04/19 09:48:54;;;;;;;14.77;11.00;;;12.70;99.90;;;;;;5061695;28;20471;-75
2023/04/19 09:51:40;;;;;;;12.37;10.13;;;12.70;99.90;;;;;;5067508;28;20452;-74
2023/04/19 09:54:28;;;;;;;13.10;9.87;;;12.60;99.90;;;;;;5064096;28;20550;-75
2023/04/19 09:57:15;;;;;;;16.60;9.60;;;12.60;99.90;;;;;;5062985;28;20453;-74
2023/04/19 10:00:05;;;;;;;12.80;9.10;;;12.60;99.90;;;;;;5067289;28;20547;-75
2023/04/19 10:02:56;;;;;;;10.17;7.93;;;12.60;99.90;;;;;;5069844;28;20407;-75
2023/04/19 10:05:42;;;;;;;13.67;8.30;;;12.60;99.90;;;;;;5069163;28;20580;-74
2023/04/19 10:08:29;;;;;;;17.37;8.80;;;12.60;99.90;;;;;;5068887;28;20443;-73
2023/04/19 10:11:14;;;;;;;12.77;8.50;;;12.60;99.90;;;;;;5067364;28;20417;-74
2023/04/19 10:14:04;;;;;;;18.33;7.83;;;12.60;99.90;;;;;;5066849;28;20430;-75
2023/04/19 10:16:51;;;;;;;13.00;8.20;;;12.70;99.90;;;;;;5071654;28;21198;-75
2023/04/19 10:19:39;;;;;;;10.60;8.43;;;12.70;99.90;;;;;;5068993;28;20426;-75
2023/04/19 10:22:25;;;;;;;11.43;8.00;;;12.70;99.90;;;;;;5069861;28;20410;-74
2023/04/19 10:25:12;;;;;;;11.67;8.10;;;12.80;99.40;;;;;;5069577;28;20546;-75
2023/04/19 10:27:58;;;;;;;16.03;6.63;;;12.80;97.80;;;;;;5066243;28;20842;-75
2023/04/19 10:30:54;;;;;;;13.20;8.10;;;12.90;96.70;;;;;;5065956;28;20779;-73
2023/04/19 10:33:41;;;;;;;13.57;7.70;;;12.90;95.60;;;;;;5065130;28;20506;-73
2023/04/19 10:36:28;;;;;;;8.33;6.20;;;13.10;95.60;;;;;;5058210;28;20939;-71
2023/04/19 10:39:41;;;;;;;9.10;6.10;;;13.10;94.40;;;;;;5063435;28;20920;-74
2023/04/19 10:43:20;;;;;;;9.87;6.03;;;13.20;91.00;;;;;;5067713;28;20442;-73
2023/04/19 10:46:08;;;;;;;7.53;5.53;;;13.30;90.80;;;;;;5038115;28;20989;-70
2023/04/19 10:48:58;;;;;;;8.13;5.67;;;13.50;91.00;;;;;;5057085;28;20510;-74
2023/04/19 10:51:51;;;;;;;9.60;5.50;;;13.60;83.20;;;;;;5072504;28;20395;-73
2023/04/19 10:54:39;;;;;;;7.53;5.60;;;13.70;83.00;;;;;;5070281;28;20533;-73
2023/04/19 10:57:25;;;;;;;8.23;6.00;;;13.80;82.00;;;;;;5059844;28;20463;-73
2023/04/19 11:00:21;;;;;;;7.40;4.90;;;13.90;83.30;;;;;;5061332;28;20606;-73
2023/04/19 11:03:45;;;;;;;8.20;5.10;;;13.90;79.20;;;;;;5067302;28;20458;-75
2023/04/19 11:06:33;;;;;;;8.50;5.77;;;13.90;79.20;;;;;;5061831;28;20998;-75
2023/04/19 11:09:22;;;;;;;11.63;4.87;;;14.10;75.30;;;;;;5073044;28;20406;-74
2023/04/19 11:12:11;;;;;;;6.93;4.83;;;14.20;75.10;;;;;;5064065;28;20419;-74
2023/04/19 11:14:58;;;;;;;13.53;6.10;;;14.30;76.30;;;;;;5067510;28;20424;-75
2023/04/19 11:17:45;;;;;;;6.40;5.13;;;14.30;73.70;;;;;;5069149;28;20465;-74
2023/04/19 11:20:30;;;;;;;5.50;4.53;;;14.40;73.50;;;;;;5066290;28;20991;-74
2023/04/19 11:23:18;;;;;;;6.80;5.60;;;14.60;73.00;;;;;;5069173;28;20423;-74
2023/04/19 11:26:04;;;;;;;5.70;4.40;;;14.80;70.70;;;;;;5070341;28;20411;-70
2023/04/19 11:28:50;;;;;;;6.93;4.70;;;15.00;70.50;;;;;;5066292;28;20459;-74
2023/04/19 11:31:36;;;;;;;6.30;4.80;;;15.20;72.60;;;;;;5064920;28;20426;-73
2023/04/19 11:34:24;;;;;;;6.90;5.10;;;15.40;67.40;;;;;;5063711;28;20925;-75
2023/04/19 11:37:11;;;;;;;9.33;4.93;;;15.50;64.80;;;;;;5063277;28;20951;-75
2023/04/19 11:39:57;;;;;;;10.07;4.80;;;15.50;59.80;;;;;;5061624;28;20424;-73
2023/04/19 11:42:43;;;;;;;6.43;4.53;;;15.50;57.30;;;;;;5057825;28;20446;-73
2023/04/19 11:45:31;;;;;;;7.00;4.13;;;15.60;54.90;;;;;;5062319;28;20420;-74
2023/04/19 11:48:16;;;;;;;5.70;3.90;;;15.80;57.10;;;;;;5065004;28;20511;-75
2023/04/19 11:51:03;;;;;;;7.80;4.20;;;15.90;53.30;;;;;;5063438;28;20413;-75
2023/04/19 11:53:49;;;;;;;8.20;4.63;;;16.10;57.50;;;;;;5065399;28;20499;-73
2023/04/19 11:56:36;;;;;;;5.90;4.10;;;16.30;51.30;;;;;;5063129;28;20901;-74
2023/04/19 11:59:22;;;;;;;7.27;4.17;;;16.30;48.60;;;;;;5056964;28;20416;-75
2023/04/19 12:02:09;;;;;;;10.90;6.57;;;16.10;46.60;;;;;;5061844;28;20583;-75
2023/04/19 12:04:54;;;;;;;5.37;3.90;;;16.10;46.90;;;;;;5068364;28;20441;-74
2023/04/19 12:08:01;;;;;;;9.23;4.67;;;16.30;49.40;;;;;;5063138;28;20436;-74
2023/04/19 12:10:56;;;;;;;7.60;4.20;;;16.70;45.20;;;;;;5062895;28;20516;-73
2023/04/19 12:13:44;;;;;;;6.20;4.03;;;16.90;46.30;;;;;;5061693;28;20420;-74
2023/04/19 12:16:30;;;;;;;5.50;3.53;;;17.10;45.10;;;;;;5059548;28;20533;-75
2023/04/19 12:19:17;;;;;;;6.73;4.67;;;17.30;41.60;;;;;;5062626;28;20409;-74
2023/04/19 12:22:13;;;;;;;6.10;3.67;;;17.40;39.50;;;;;;5060211;28;20567;-74
2023/04/19 12:24:59;;;;;;;9.63;3.90;;;17.30;37.40;;;;;;5063230;28;20447;-74
2023/04/19 12:27:44;;;;;;;5.33;4.07;;;17.30;38.80;;;;;;5061018;28;20488;-74
2023/04/19 12:30:32;;;;;;;10.90;4.17;;;17.50;37.20;;;;;;5064172;28;20436;-74
2023/04/19 12:33:17;;;;;;;10.80;4.53;;;17.70;37.10;;;;;;5059690;28;20971;-74
2023/04/19 12:36:03;;;;;;;5.33;4.00;;;17.90;31.50;;;;;;5063331;28;20552;-72
2023/04/19 12:38:49;;;;;;;6.33;3.83;;;18.00;32.80;;;;;;5058368;28;20453;-74
2023/04/19 12:41:35;;;;;;;6.50;4.50;;;18.00;34.10;;;;;;5062436;28;20924;-75
2023/04/19 12:44:20;;;;;;;11.60;4.07;;;18.00;33.50;;;;;;5066150;28;20537;-71
2023/04/19 12:47:07;;;;;;;6.03;4.60;;;17.70;33.20;;;;;;5066059;28;20997;-74
2023/04/19 12:49:54;;;;;;;6.80;4.87;;;17.30;35.30;;;;;;5065052;28;20415;-74
2023/04/19 12:52:40;;;;;;;7.70;4.63;;;16.90;37.20;;;;;;5070140;28;20409;-73
2023/04/19 12:55:26;;;;;;;6.80;4.80;;;17.00;40.10;;;;;;5066970;28;20442;-76
2023/04/19 12:58:12;;;;;;;6.97;4.20;;;17.50;40.80;;;;;;5069143;28;20484;-75
2023/04/19 13:00:57;;;;;;;10.47;5.13;;;17.90;37.50;;;;;;5068231;28;20465;-75
2023/04/19 13:03:44;;;;;;;7.80;4.17;;;18.20;34.10;;;;;;5063673;28;20847;-74
2023/04/19 13:06:30;;;;;;;7.17;3.87;;;18.50;32.60;;;;;;5067646;28;20651;-75
2023/04/19 13:09:16;;;;;;;6.30;3.70;;;18.20;29.60;;;;;;5070738;28;20948;-74
2023/04/19 13:12:02;;;;;;;5.57;3.90;;;17.90;31.60;;;;;;5061413;28;20949;-75
2023/04/19 13:14:50;;;;;;;7.60;4.60;;;18.00;32.50;;;;;;5065841;28;20435;-72
2023/04/19 13:17:36;;;;;;;5.13;3.30;;;18.20;31.30;;;;;;5065315;28;20619;-74
2023/04/19 13:20:23;;;;;;;5.27;3.73;;;18.50;28.90;;;;;;5068261;28;20475;-71
2023/04/19 13:23:08;;;;;;;6.10;3.97;;;18.50;26.90;;;;;;5062570;28;20802;-75
2023/04/19 13:25:54;;;;;;;3.90;3.13;;;18.40;28.00;;;;;;5060101;28;20516;-74
2023/04/19 13:28:41;;;;;;;4.30;3.50;;;18.00;27.60;;;;;;5060997;28;20496;-74
2023/04/19 13:31:27;;;;;;;4.17;3.10;;;17.90;25.80;;;;;;5060419;28;20428;-71
2023/04/19 13:34:12;;;;;;;4.80;3.00;;;17.70;24.50;;;;;;5061453;28;20428;-75
2023/04/19 13:37:00;;;;;;;4.50;3.30;;;17.60;26.30;;;;;;5061444;28;20804;-75
2023/04/19 13:39:45;;;;;;;10.73;3.70;;;17.60;25.30;;;;;;5062664;28;20504;-75
2023/04/19 13:42:31;;;;;;;4.50;3.20;;;17.90;25.60;;;;;;5061607;28;20563;-75
2023/04/19 13:45:16;;;;;;;3.70;2.83;;;18.20;25.00;;;;;;5066538;28;20487;-74
2023/04/19 13:48:02;;;;;;;4.93;2.53;;;18.10;22.80;;;;;;5067950;28;20832;-74
2023/04/19 13:50:48;;;;;;;5.57;2.80;;;18.10;22.20;;;;;;5063622;28;20476;-74
2023/04/19 13:53:35;;;;;;;6.67;2.73;;;18.40;22.30;;;;;;5065926;28;20617;-71
2023/04/19 13:56:21;;;;;;;5.53;2.27;;;18.30;21.70;;;;;;5068055;28;21025;-75
2023/04/19 13:59:07;;;;;;;4.43;2.90;;;18.40;22.60;;;;;;5062754;28;20469;-74
2023/04/19 14:01:54;;;;;;;4.60;2.90;;;18.50;20.60;;;;;;5066457;28;20483;-75
2023/04/19 14:04:39;;;;;;;7.10;2.97;;;18.80;20.80;;;;;;5059547;28;20471;-72
2023/04/19 14:07:25;;;;;;;8.93;2.43;;;18.90;19.20;;;;;;5062840;28;20466;-74
2023/04/19 14:10:12;;;;;;;7.07;2.47;;;19.00;19.30;;;;;;5058450;28;20473;-74
2023/04/19 14:12:58;;;;;;;4.97;2.47;;;18.90;19.20;;;;;;5065919;28;20781;-75
2023/04/19 14:15:45;;;;;;;6.63;3.10;;;18.90;18.40;;;;;;5072472;28;20508;-75
2023/04/19 14:18:30;;;;;;;9.40;2.40;;;18.90;18.20;;;;;;5064191;28;20491;-74
2023/04/19 14:21:16;;;;;;;6.20;2.10;;;18.80;18.10;;;;;;5061622;28;20456;-74
2023/04/19 14:24:01;;;;;;;5.67;2.43;;;18.70;17.00;;;;;;5065740;28;20516;-72
2023/04/19 14:26:48;;;;;;;3.50;2.00;;;18.60;15.50;;;;;;5063668;28;20426;-75